createdAt,value
2023-01-19T00:00:46.837Z,-6.55
2023-01-19T00:01:46.826Z,-6.50
2023-01-19T00:02:46.851Z,-6.43
2023-01-19T00:03:46.841Z,-6.46
2023-01-19T00:04:46.791Z,-6.39
2023-01-19T00:05:46.828Z,-6.32
2023-01-19T00:06:46.795Z,-6.39
2023-01-19T00:07:46.766Z,-6.32
2023-01-19T00:08:46.738Z,-6.28
2023-01-19T00:09:46.740Z,-6.25
2023-01-19T00:10:46.727Z,-6.16
2023-01-19T00:11:46.748Z,-6.16
2023-01-19T00:12:46.706Z,-6.28
2023-01-19T00:13:46.696Z,-6.31
2023-01-19T00:14:46.692Z,-6.26
2023-01-19T00:15:46.681Z,-6.28
2023-01-19T00:16:46.674Z,-6.37
2023-01-19T00:17:46.674Z,-6.43
2023-01-19T00:18:46.640Z,-6.49
2023-01-19T00:19:46.639Z,-6.44
2023-01-19T00:20:46.619Z,-6.52
2023-01-19T00:21:46.601Z,-6.40
2023-01-19T00:22:46.603Z,-6.49
2023-01-19T00:23:46.603Z,-6.63
2023-01-19T00:24:46.567Z,-6.58
2023-01-19T00:25:46.564Z,-6.61
2023-01-19T00:26:46.574Z,-6.61
2023-01-19T00:27:46.568Z,-6.63
2023-01-19T00:28:46.569Z,-6.66
2023-01-19T00:29:46.515Z,-6.71
2023-01-19T00:30:46.500Z,-6.73
2023-01-19T00:31:46.582Z,-6.65
2023-01-19T00:32:46.481Z,-6.68
2023-01-19T00:33:46.494Z,-6.73
2023-01-19T00:34:46.469Z,-6.68
2023-01-19T00:35:46.468Z,-6.66
2023-01-19T00:36:46.441Z,-6.68
2023-01-19T00:37:46.459Z,-6.61
2023-01-19T00:38:46.417Z,-6.66
2023-01-19T00:39:46.413Z,-6.76
2023-01-19T00:40:46.396Z,-6.76
2023-01-19T00:41:46.389Z,-6.79
2023-01-19T00:42:46.371Z,-6.84
2023-01-19T00:43:46.393Z,-6.86
2023-01-19T00:44:46.364Z,-7.00
2023-01-19T00:45:46.404Z,-7.11
2023-01-19T00:46:46.373Z,-7.11
2023-01-19T00:47:46.326Z,-7.21
2023-01-19T00:48:46.317Z,-7.15
2023-01-19T00:49:46.323Z,-7.11
2023-01-19T00:50:46.285Z,-7.23
2023-01-19T00:51:46.319Z,-7.19
2023-01-19T00:52:48.192Z,-7.25
2023-01-19T00:53:46.272Z,-7.23
2023-01-19T00:54:46.264Z,-7.33
2023-01-19T00:55:46.234Z,-7.30
2023-01-19T00:56:46.219Z,-7.30
2023-01-19T00:57:46.224Z,-7.37
2023-01-19T00:58:46.231Z,-7.39
2023-01-19T00:59:46.218Z,-7.40
2023-01-19T01:00:46.237Z,-7.51
2023-01-19T01:01:46.690Z,-7.50
2023-01-19T01:02:46.242Z,-7.43
2023-01-19T01:03:46.175Z,-7.55
2023-01-19T01:04:46.135Z,-7.44
2023-01-19T01:05:46.159Z,-7.41
2023-01-19T01:06:46.117Z,-7.44
2023-01-19T01:07:46.123Z,-7.54
2023-01-19T01:08:46.111Z,-7.48
2023-01-19T01:09:46.083Z,-7.62
2023-01-19T01:10:46.069Z,-7.62
2023-01-19T01:11:46.084Z,-7.61
2023-01-19T01:12:57.364Z,-7.78
2023-01-19T01:13:47.040Z,-7.75
2023-01-19T01:14:46.051Z,-7.68
2023-01-19T01:15:46.031Z,-7.76
2023-01-19T01:16:46.041Z,-7.78
2023-01-19T01:17:46.002Z,-7.73
2023-01-19T01:18:46.001Z,-7.80
2023-01-19T01:19:46.004Z,-7.89
2023-01-19T01:20:45.978Z,-7.89
2023-01-19T01:21:45.958Z,-7.90
2023-01-19T01:22:45.950Z,-7.93
2023-01-19T01:23:45.972Z,-8.06
2023-01-19T01:24:45.930Z,-7.97
2023-01-19T01:25:45.908Z,-7.97
2023-01-19T01:26:45.944Z,-8.05
2023-01-19T01:27:45.896Z,-8.05
2023-01-19T01:28:45.875Z,-8.06
2023-01-19T01:29:45.901Z,-7.94
2023-01-19T01:30:45.856Z,-8.02
2023-01-19T01:31:45.897Z,-8.09
2023-01-19T01:32:48.639Z,-8.12
2023-01-19T01:33:45.858Z,-8.09
2023-01-19T01:34:45.816Z,-8.13
2023-01-19T01:35:45.804Z,-8.09
2023-01-19T01:36:45.794Z,-8.08
2023-01-19T01:37:45.777Z,-8.12
2023-01-19T01:38:45.769Z,-8.09
2023-01-19T01:39:45.794Z,-8.13
2023-01-19T01:40:45.757Z,-8.13
2023-01-19T01:41:45.741Z,-7.97
2023-01-19T01:42:45.832Z,-8.06
2023-01-19T01:43:45.736Z,-8.05
2023-01-19T01:44:45.725Z,-8.08
2023-01-19T01:45:45.742Z,-7.99
2023-01-19T01:46:45.708Z,-8.08
2023-01-19T01:47:45.675Z,-8.09
2023-01-19T01:48:45.674Z,-8.11
2023-01-19T01:49:45.647Z,-8.12
2023-01-19T01:50:45.662Z,-8.11
2023-01-19T01:51:45.623Z,-8.09
2023-01-19T01:53:06.023Z,-8.13
2023-01-19T01:53:46.618Z,-8.15
2023-01-19T01:54:45.607Z,-8.24
2023-01-19T01:55:45.622Z,-8.18
2023-01-19T01:56:45.574Z,-8.18
2023-01-19T01:57:45.588Z,-8.16
2023-01-19T01:58:45.559Z,-8.16
2023-01-19T01:59:45.544Z,-8.23
2023-01-19T02:00:45.625Z,-8.19
2023-01-19T02:01:45.624Z,-8.24
2023-01-19T02:02:45.522Z,-8.21
2023-01-19T02:03:45.524Z,-8.27
2023-01-19T02:04:45.514Z,-8.31
2023-01-19T02:05:45.478Z,-8.26
2023-01-19T02:06:45.487Z,-8.34
2023-01-19T02:07:45.475Z,-8.37
2023-01-19T02:08:45.451Z,-8.45
2023-01-19T02:09:45.441Z,-8.42
2023-01-19T02:10:45.460Z,-8.45
2023-01-19T02:11:45.507Z,-8.51
2023-01-19T02:12:45.408Z,-8.45
2023-01-19T02:13:45.413Z,-8.52
2023-01-19T02:14:45.392Z,-8.57
2023-01-19T02:15:45.369Z,-8.51
2023-01-19T02:16:45.420Z,-8.57
2023-01-19T02:17:45.364Z,-8.63
2023-01-19T02:18:45.352Z,-8.68
2023-01-19T02:19:45.341Z,-8.69
2023-01-19T02:20:45.319Z,-8.68
2023-01-19T02:21:45.319Z,-8.73
2023-01-19T02:22:45.302Z,-8.69
2023-01-19T02:23:45.288Z,-8.78
2023-01-19T02:24:45.279Z,-8.80
2023-01-19T02:25:45.298Z,-8.89
2023-01-19T02:26:45.257Z,-8.86
2023-01-19T02:27:45.254Z,-8.86
2023-01-19T02:28:45.270Z,-8.89
2023-01-19T02:29:45.222Z,-9.01
2023-01-19T02:30:45.271Z,-8.94
2023-01-19T02:31:45.202Z,-9.02
2023-01-19T02:32:45.244Z,-9.04
2023-01-19T02:33:45.174Z,-9.01
2023-01-19T02:34:45.170Z,-9.01
2023-01-19T02:35:45.172Z,-9.01
2023-01-19T02:36:45.170Z,-9.05
2023-01-19T02:37:45.140Z,-9.08
2023-01-19T02:38:45.138Z,-9.05
2023-01-19T02:39:45.120Z,-9.07
2023-01-19T02:40:45.126Z,-9.15
2023-01-19T02:41:45.221Z,-9.12
2023-01-19T02:42:45.210Z,-9.11
2023-01-19T02:43:45.187Z,-9.14
2023-01-19T02:44:45.095Z,-9.11
2023-01-19T02:45:45.083Z,-9.11
2023-01-19T02:46:45.068Z,-9.14
2023-01-19T02:47:45.041Z,-9.26
2023-01-19T02:48:45.027Z,-9.15
2023-01-19T02:49:45.002Z,-9.23
2023-01-19T02:50:45.022Z,-9.26
2023-01-19T02:51:44.984Z,-9.25
2023-01-19T02:52:44.975Z,-9.26
2023-01-19T02:53:44.979Z,-9.30
2023-01-19T02:54:44.980Z,-9.25
2023-01-19T02:55:44.960Z,-9.30
2023-01-19T02:56:44.930Z,-9.26
2023-01-19T02:57:44.915Z,-9.19
2023-01-19T02:58:44.912Z,-9.26
2023-01-19T02:59:44.913Z,-9.25
2023-01-19T03:00:44.891Z,-9.25
2023-01-19T03:01:45.098Z,-9.30
2023-01-19T03:02:44.940Z,-9.15
2023-01-19T03:03:44.875Z,-9.18
2023-01-19T03:04:44.870Z,-9.11
2023-01-19T03:05:44.833Z,-9.10
2023-01-19T03:06:44.862Z,-9.12
2023-01-19T03:07:44.820Z,-9.14
2023-01-19T03:08:44.818Z,-9.11
2023-01-19T03:09:47.617Z,-9.14
2023-01-19T03:10:44.794Z,-9.29
2023-01-19T03:11:44.824Z,-9.23
2023-01-19T03:12:44.773Z,-9.22
2023-01-19T03:13:44.761Z,-9.25
2023-01-19T03:14:44.740Z,-9.23
2023-01-19T03:15:44.871Z,-9.23
2023-01-19T03:16:44.862Z,-9.28
2023-01-19T03:17:44.720Z,-9.25
2023-01-19T03:18:44.696Z,-9.22
2023-01-19T03:19:44.690Z,-9.26
2023-01-19T03:20:44.696Z,-9.25
2023-01-19T03:21:44.665Z,-9.26
2023-01-19T03:22:44.655Z,-9.11
2023-01-19T03:23:44.656Z,-9.08
2023-01-19T03:24:44.638Z,-9.19
2023-01-19T03:25:44.624Z,-9.05
2023-01-19T03:26:44.611Z,-9.00
2023-01-19T03:27:44.615Z,-9.02
2023-01-19T03:28:44.585Z,-9.02
2023-01-19T03:29:44.614Z,-8.98
2023-01-19T03:30:44.621Z,-8.98
2023-01-19T03:31:44.573Z,-8.98
2023-01-19T03:32:44.549Z,-8.91
2023-01-19T03:33:44.535Z,-8.91
2023-01-19T03:34:44.542Z,-8.86
2023-01-19T03:35:44.510Z,-8.89
2023-01-19T03:36:44.505Z,-8.86
2023-01-19T03:37:44.503Z,-8.93
2023-01-19T03:38:44.478Z,-8.90
2023-01-19T03:39:44.462Z,-8.86
2023-01-19T03:40:44.483Z,-8.90
2023-01-19T03:41:44.556Z,-8.72
2023-01-19T03:42:44.458Z,-8.66
2023-01-19T03:43:44.419Z,-8.69
2023-01-19T03:44:44.411Z,-8.66
2023-01-19T03:45:44.405Z,-8.60
2023-01-19T03:46:44.401Z,-8.65
2023-01-19T03:47:44.417Z,-8.63
2023-01-19T03:48:44.369Z,-8.57
2023-01-19T03:49:44.359Z,-8.55
2023-01-19T03:50:44.349Z,-8.60
2023-01-19T03:51:44.362Z,-8.57
2023-01-19T03:52:44.330Z,-8.54
2023-01-19T03:53:44.330Z,-8.54
2023-01-19T03:54:44.307Z,-8.47
2023-01-19T03:55:44.312Z,-8.55
2023-01-19T03:56:44.287Z,-8.44
2023-01-19T03:57:44.276Z,-8.48
2023-01-19T03:58:44.281Z,-8.45
2023-01-19T03:59:44.282Z,-8.37
2023-01-19T04:00:44.254Z,-8.42
2023-01-19T04:01:44.382Z,-8.34
2023-01-19T04:02:44.275Z,-8.29
2023-01-19T04:03:44.232Z,-8.27
2023-01-19T04:04:44.223Z,-8.18
2023-01-19T04:05:44.183Z,-8.12
2023-01-19T04:06:44.228Z,-8.15
2023-01-19T04:07:44.161Z,-8.19
2023-01-19T04:08:44.155Z,-8.18
2023-01-19T04:09:44.161Z,-8.16
2023-01-19T04:10:44.134Z,-8.12
2023-01-19T04:11:44.118Z,-8.11
2023-01-19T04:12:44.120Z,-8.08
2023-01-19T04:13:44.104Z,-8.11
2023-01-19T04:14:44.115Z,-8.13
2023-01-19T04:15:44.115Z,-8.08
2023-01-19T04:16:44.092Z,-8.15
2023-01-19T04:17:44.054Z,-8.01
2023-01-19T04:18:44.066Z,-7.99
2023-01-19T04:19:44.056Z,-8.05
2023-01-19T04:20:44.035Z,-7.96
2023-01-19T04:21:44.045Z,-8.05
2023-01-19T04:22:44.007Z,-7.91
2023-01-19T04:23:43.989Z,-8.05
2023-01-19T04:24:43.986Z,-7.94
2023-01-19T04:25:43.970Z,-8.01
2023-01-19T04:26:43.986Z,-7.97
2023-01-19T04:27:43.948Z,-8.01
2023-01-19T04:28:43.959Z,-7.93
2023-01-19T04:29:44.018Z,-7.96
2023-01-19T04:30:44.082Z,-7.96
2023-01-19T04:31:43.935Z,-8.01
2023-01-19T04:32:43.916Z,-7.93
2023-01-19T04:33:43.910Z,-7.99
2023-01-19T04:34:43.877Z,-7.93
2023-01-19T04:35:43.881Z,-7.90
2023-01-19T04:36:43.863Z,-7.94
2023-01-19T04:37:43.841Z,-8.01
2023-01-19T04:38:43.853Z,-8.05
2023-01-19T04:39:43.818Z,-7.94
2023-01-19T04:40:43.813Z,-8.13
2023-01-19T04:41:43.818Z,-8.19
2023-01-19T04:42:43.789Z,-8.13
2023-01-19T04:43:43.786Z,-8.33
2023-01-19T04:44:43.787Z,-8.31
2023-01-19T04:45:43.761Z,-8.36
2023-01-19T04:46:44.776Z,-8.50
2023-01-19T04:47:43.756Z,-8.51
2023-01-19T04:48:43.727Z,-8.50
2023-01-19T04:49:43.713Z,-8.57
2023-01-19T04:50:43.724Z,-8.55
2023-01-19T04:51:43.711Z,-8.60
2023-01-19T04:52:43.714Z,-8.63
2023-01-19T04:53:43.684Z,-8.69
2023-01-19T04:54:43.666Z,-8.72
2023-01-19T04:55:43.647Z,-8.75
2023-01-19T04:56:43.679Z,-8.81
2023-01-19T04:57:43.627Z,-8.83
2023-01-19T04:58:43.644Z,-8.86
2023-01-19T04:59:43.616Z,-8.86
2023-01-19T05:00:43.604Z,-8.90
2023-01-19T05:01:43.646Z,-9.02
2023-01-19T05:02:43.608Z,-8.89
2023-01-19T05:03:43.599Z,-8.87
2023-01-19T05:04:43.553Z,-8.87
2023-01-19T05:05:43.540Z,-8.80
2023-01-19T05:06:43.532Z,-8.87
2023-01-19T05:07:43.589Z,-8.62
2023-01-19T05:08:45.325Z,-8.50
2023-01-19T05:09:43.527Z,-8.44
2023-01-19T05:10:43.500Z,-8.21
2023-01-19T05:11:43.473Z,-7.99
2023-01-19T05:12:43.473Z,-7.82
2023-01-19T05:13:43.467Z,-7.61
2023-01-19T05:14:43.488Z,-7.54
2023-01-19T05:15:43.605Z,-7.44
2023-01-19T05:16:43.439Z,-7.33
2023-01-19T05:17:43.433Z,-7.22
2023-01-19T05:18:43.415Z,-7.23
2023-01-19T05:19:43.390Z,-7.15
2023-01-19T05:20:43.388Z,-7.07
2023-01-19T05:21:43.374Z,-6.98
2023-01-19T05:22:43.418Z,-6.86
2023-01-19T05:23:43.367Z,-6.84
2023-01-19T05:24:43.342Z,-6.83
2023-01-19T05:25:43.334Z,-6.86
2023-01-19T05:26:43.345Z,-6.79
2023-01-19T05:27:43.312Z,-6.73
2023-01-19T05:28:43.309Z,-6.77
2023-01-19T05:29:43.304Z,-6.73
2023-01-19T05:30:43.337Z,-6.66
2023-01-19T05:31:43.306Z,-6.74
2023-01-19T05:32:43.284Z,-6.74
2023-01-19T05:33:43.265Z,-6.71
2023-01-19T05:34:43.240Z,-6.71
2023-01-19T05:35:43.246Z,-6.77
2023-01-19T05:36:43.214Z,-6.71
2023-01-19T05:37:43.213Z,-6.69
2023-01-19T05:38:43.192Z,-6.65
2023-01-19T05:39:43.195Z,-6.62
2023-01-19T05:40:43.172Z,-6.69
2023-01-19T05:41:43.154Z,-6.63
2023-01-19T05:42:43.168Z,-6.54
2023-01-19T05:43:43.130Z,-6.46
2023-01-19T05:44:43.123Z,-6.52
2023-01-19T05:45:43.120Z,-6.46
2023-01-19T05:46:43.165Z,-6.47
2023-01-19T05:47:43.107Z,-6.44
2023-01-19T05:48:43.106Z,-6.46
2023-01-19T05:49:43.078Z,-6.46
2023-01-19T05:50:43.059Z,-6.39
2023-01-19T05:51:43.050Z,-6.49
2023-01-19T05:52:43.061Z,-6.46
2023-01-19T05:53:43.047Z,-6.49
2023-01-19T05:54:43.011Z,-6.59
2023-01-19T05:55:43.034Z,-6.52
2023-01-19T05:56:42.997Z,-6.47
2023-01-19T05:57:42.996Z,-6.49
2023-01-19T05:58:43.009Z,-6.65
2023-01-19T05:59:42.966Z,-6.68
2023-01-19T06:00:42.969Z,-6.63
2023-01-19T06:01:43.028Z,-6.59
2023-01-19T06:02:42.963Z,-6.54
2023-01-19T06:03:42.919Z,-6.55
2023-01-19T06:04:42.931Z,-6.52
2023-01-19T06:05:42.906Z,-6.42
2023-01-19T06:06:42.894Z,-6.36
2023-01-19T06:07:42.911Z,-6.37
2023-01-19T06:08:42.870Z,-6.39
2023-01-19T06:09:42.869Z,-6.25
2023-01-19T06:10:42.841Z,-6.31
2023-01-19T06:11:42.883Z,-6.18
2023-01-19T06:12:42.821Z,-6.21
2023-01-19T06:13:42.835Z,-6.13
2023-01-19T06:14:42.795Z,-6.19
2023-01-19T06:15:42.809Z,-6.22
2023-01-19T06:16:42.856Z,-6.16
2023-01-19T06:17:42.800Z,-6.21
2023-01-19T06:18:42.757Z,-6.22
2023-01-19T06:19:42.795Z,-6.19
2023-01-19T06:20:42.786Z,-6.18
2023-01-19T06:21:42.730Z,-6.32
2023-01-19T06:22:42.711Z,-6.18
2023-01-19T06:23:43.992Z,-6.26
2023-01-19T06:24:42.712Z,-6.22
2023-01-19T06:25:42.706Z,-6.19
2023-01-19T06:26:42.686Z,-6.16
2023-01-19T06:27:42.681Z,-6.15
2023-01-19T06:28:42.655Z,-6.25
2023-01-19T06:29:42.638Z,-6.15
2023-01-19T06:30:42.634Z,-6.15
2023-01-19T06:31:42.736Z,-6.16
2023-01-19T06:32:42.611Z,-6.19
2023-01-19T06:33:42.604Z,-6.10
2023-01-19T06:34:42.893Z,-6.13
2023-01-19T06:35:43.114Z,-6.15
2023-01-19T06:36:42.559Z,-6.13
2023-01-19T06:37:42.551Z,-6.21
2023-01-19T06:38:42.565Z,-6.10
2023-01-19T06:39:42.544Z,-6.10
2023-01-19T06:40:42.540Z,-6.11
2023-01-19T06:41:42.509Z,-6.08
2023-01-19T06:42:42.510Z,-6.08
2023-01-19T06:43:42.526Z,-6.10
2023-01-19T06:44:42.476Z,-6.08
2023-01-19T06:45:44.516Z,-6.16
2023-01-19T06:46:42.478Z,-6.21
2023-01-19T06:47:42.446Z,-6.11
2023-01-19T06:48:42.431Z,-6.15
2023-01-19T06:49:42.458Z,-6.18
2023-01-19T06:50:42.433Z,-6.15
2023-01-19T06:51:42.403Z,-6.29
2023-01-19T06:52:42.631Z,-6.18
2023-01-19T06:53:42.400Z,-6.21
2023-01-19T06:54:42.363Z,-6.31
2023-01-19T06:55:42.387Z,-6.32
2023-01-19T06:56:42.341Z,-6.29
2023-01-19T06:57:42.377Z,-6.32
2023-01-19T06:58:42.326Z,-6.37
2023-01-19T06:59:42.344Z,-6.39
2023-01-19T07:00:42.356Z,-6.44
2023-01-19T07:01:42.398Z,-6.47
2023-01-19T07:02:42.348Z,-6.46
2023-01-19T07:03:42.375Z,-6.37
2023-01-19T07:04:42.256Z,-6.43
2023-01-19T07:05:42.274Z,-6.49
2023-01-19T07:06:42.238Z,-6.39
2023-01-19T07:07:42.234Z,-6.43
2023-01-19T07:08:42.223Z,-6.46
2023-01-19T07:09:42.210Z,-6.39
2023-01-19T07:11:25.279Z,-6.39
2023-01-19T07:11:43.186Z,-6.32
2023-01-19T07:12:42.181Z,-6.32
2023-01-19T07:13:42.164Z,-6.40
2023-01-19T07:14:42.155Z,-6.37
2023-01-19T07:15:42.201Z,-6.32
2023-01-19T07:16:42.206Z,-6.40
2023-01-19T07:17:42.144Z,-6.47
2023-01-19T07:18:42.110Z,-6.52
2023-01-19T07:19:42.117Z,-6.50
2023-01-19T07:20:42.108Z,-6.43
2023-01-19T07:21:42.085Z,-6.44
2023-01-19T07:22:42.090Z,-6.49
2023-01-19T07:23:42.068Z,-6.37
2023-01-19T07:24:42.048Z,-6.43
2023-01-19T07:25:42.038Z,-6.39
2023-01-19T07:26:42.066Z,-6.34
2023-01-19T07:27:42.030Z,-6.37
2023-01-19T07:28:42.015Z,-6.31
2023-01-19T07:29:42.086Z,-6.28
2023-01-19T07:30:42.057Z,-6.31
2023-01-19T07:31:42.068Z,-6.26
2023-01-19T07:32:41.972Z,-6.26
2023-01-19T07:33:41.969Z,-6.26
2023-01-19T07:34:41.942Z,-6.31
2023-01-19T07:35:41.925Z,-6.25
2023-01-19T07:36:41.913Z,-6.26
2023-01-19T07:37:41.915Z,-6.34
2023-01-19T07:38:41.914Z,-6.28
2023-01-19T07:39:41.905Z,-6.18
2023-01-19T07:40:41.867Z,-6.22
2023-01-19T07:41:41.882Z,-6.22
2023-01-19T07:42:41.874Z,-6.11
2023-01-19T07:43:41.850Z,-6.16
2023-01-19T07:44:41.845Z,-6.18
2023-01-19T07:45:41.928Z,-6.23
2023-01-19T07:46:41.824Z,-6.16
2023-01-19T07:47:41.820Z,-6.16
2023-01-19T07:48:41.812Z,-6.15
2023-01-19T07:49:41.776Z,-6.16
2023-01-19T07:50:41.761Z,-6.16
2023-01-19T07:51:41.756Z,-6.10
2023-01-19T07:52:41.742Z,-6.04
2023-01-19T07:53:41.840Z,-5.89
2023-01-19T07:54:41.721Z,-5.97
2023-01-19T07:55:41.751Z,-5.80
2023-01-19T07:56:41.709Z,-5.75
2023-01-19T07:57:41.720Z,-5.61
2023-01-19T07:58:41.683Z,-5.54
2023-01-19T07:59:41.668Z,-5.50
2023-01-19T08:00:44.661Z,-5.55
2023-01-19T08:01:41.823Z,-5.47
2023-01-19T08:02:41.659Z,-5.41
2023-01-19T08:03:41.660Z,-5.35
2023-01-19T08:04:41.673Z,-5.33
2023-01-19T08:05:41.658Z,-5.29
2023-01-19T08:06:41.588Z,-5.29
2023-01-19T08:07:41.583Z,-5.08
2023-01-19T08:08:41.569Z,-5.11
2023-01-19T08:09:41.579Z,-5.06
2023-01-19T08:10:41.569Z,-5.07
2023-01-19T08:11:41.547Z,-4.99
2023-01-19T08:12:41.543Z,-4.92
2023-01-19T08:13:41.513Z,-4.97
2023-01-19T08:14:41.499Z,-4.79
2023-01-19T08:15:41.517Z,-4.74
2023-01-19T08:16:41.484Z,-4.72
2023-01-19T08:17:41.490Z,-4.72
2023-01-19T08:18:41.457Z,-4.67
2023-01-19T08:19:41.703Z,-4.60
2023-01-19T08:20:41.434Z,-4.56
2023-01-19T08:21:41.425Z,-4.51
2023-01-19T08:22:41.444Z,-4.35
2023-01-19T08:23:41.559Z,-4.39
2023-01-19T08:24:41.396Z,-4.32
2023-01-19T08:25:41.409Z,-4.33
2023-01-19T08:26:41.368Z,-4.25
2023-01-19T08:27:41.449Z,-4.25
2023-01-19T08:28:41.349Z,-4.17
2023-01-19T08:29:41.357Z,-4.17
2023-01-19T08:30:41.488Z,-4.18
2023-01-19T08:31:41.451Z,-4.12
2023-01-19T08:32:41.312Z,-4.12
2023-01-19T08:33:41.308Z,-4.03
2023-01-19T08:34:41.326Z,-4.00
2023-01-19T08:35:41.354Z,-3.93
2023-01-19T08:36:41.271Z,-3.93
2023-01-19T08:37:41.291Z,-3.86
2023-01-19T08:38:41.292Z,-3.85
2023-01-19T08:39:41.251Z,-3.96
2023-01-19T08:40:41.267Z,-3.83
2023-01-19T08:41:41.238Z,-3.86
2023-01-19T08:42:41.212Z,-3.86
2023-01-19T08:43:41.217Z,-3.85
2023-01-19T08:44:46.795Z,-3.79
2023-01-19T08:45:42.184Z,-3.66
2023-01-19T08:46:41.215Z,-3.66
2023-01-19T08:47:41.227Z,-3.76
2023-01-19T08:48:41.135Z,-3.60
2023-01-19T08:49:41.125Z,-3.53
2023-01-19T08:50:41.113Z,-3.54
2023-01-19T08:51:41.284Z,-3.59
2023-01-19T08:52:41.113Z,-3.54
2023-01-19T08:53:41.092Z,-3.45
2023-01-19T08:54:41.083Z,-3.43
2023-01-19T08:55:41.097Z,-3.46
2023-01-19T08:56:41.082Z,-3.41
2023-01-19T08:57:41.053Z,-3.30
2023-01-19T08:58:41.022Z,-3.35
2023-01-19T08:59:41.016Z,-3.21
2023-01-19T09:00:41.022Z,-3.24
2023-01-19T09:01:41.110Z,-3.20
2023-01-19T09:02:41.036Z,-3.18
2023-01-19T09:03:40.968Z,-3.07
2023-01-19T09:04:40.959Z,-3.05
2023-01-19T09:05:40.978Z,-3.06
2023-01-19T09:06:40.948Z,-3.10
2023-01-19T09:07:40.942Z,-2.96
2023-01-19T09:08:40.946Z,-3.03
2023-01-19T09:09:40.915Z,-2.96
2023-01-19T09:10:40.910Z,-2.97
2023-01-19T09:11:40.887Z,-2.86
2023-01-19T09:12:40.888Z,-2.92
2023-01-19T09:13:40.885Z,-2.84
2023-01-19T09:14:40.846Z,-2.81
2023-01-19T09:15:40.948Z,-2.84
2023-01-19T09:16:40.825Z,-2.81
2023-01-19T09:17:40.828Z,-2.73
2023-01-19T09:18:40.846Z,-2.68
2023-01-19T09:19:40.796Z,-2.67
2023-01-19T09:20:40.780Z,-2.73
2023-01-19T09:21:40.774Z,-2.79
2023-01-19T09:22:40.756Z,-2.70
2023-01-19T09:23:40.788Z,-2.70
2023-01-19T09:24:40.736Z,-2.67
2023-01-19T09:25:40.768Z,-2.61
2023-01-19T09:26:40.753Z,-2.61
2023-01-19T09:27:40.747Z,-2.66
2023-01-19T09:28:40.695Z,-2.58
2023-01-19T09:29:40.695Z,-2.49
2023-01-19T09:30:40.751Z,-2.49
2023-01-19T09:31:40.712Z,-2.58
2023-01-19T09:32:40.661Z,-2.56
2023-01-19T09:33:40.661Z,-2.50
2023-01-19T09:34:40.634Z,-2.53
2023-01-19T09:35:40.629Z,-2.55
2023-01-19T09:36:40.616Z,-2.55
2023-01-19T09:37:40.617Z,-2.49
2023-01-19T09:38:40.622Z,-2.52
2023-01-19T09:39:40.635Z,-2.45
2023-01-19T09:40:42.089Z,-2.37
2023-01-19T09:41:40.549Z,-2.43
2023-01-19T09:42:40.625Z,-2.43
2023-01-19T09:43:40.572Z,-2.40
2023-01-19T09:44:40.514Z,-2.37
2023-01-19T09:45:40.526Z,-2.42
2023-01-19T09:46:40.541Z,-2.42
2023-01-19T09:47:40.483Z,-2.32
2023-01-19T09:48:40.486Z,-2.37
2023-01-19T09:49:40.476Z,-2.26
2023-01-19T09:50:40.460Z,-2.34
2023-01-19T09:51:40.464Z,-2.35
2023-01-19T09:52:40.432Z,-2.30
2023-01-19T09:53:40.454Z,-2.30
2023-01-19T09:54:40.403Z,-2.29
2023-01-19T09:55:40.421Z,-2.26
2023-01-19T09:56:40.454Z,-2.26
2023-01-19T09:57:40.381Z,-2.20
2023-01-19T09:58:40.360Z,-2.20
2023-01-19T09:59:40.372Z,-2.15
2023-01-19T10:00:40.384Z,-2.13
2023-01-19T10:01:40.363Z,-2.10
2023-01-19T10:02:40.465Z,-2.13
2023-01-19T10:03:40.315Z,-2.18
2023-01-19T10:04:40.388Z,-2.08
2023-01-19T10:05:40.323Z,-2.13
2023-01-19T10:06:40.281Z,-2.03
2023-01-19T10:07:40.276Z,-2.09
2023-01-19T10:08:40.266Z,-2.02
2023-01-19T10:09:40.241Z,-2.02
2023-01-19T10:10:40.248Z,-2.00
2023-01-19T10:11:51.859Z,-1.95
2023-01-19T10:12:41.233Z,-1.92
2023-01-19T10:13:40.205Z,-1.97
2023-01-19T10:14:40.200Z,-1.91
2023-01-19T10:15:40.190Z,-1.92
2023-01-19T10:16:40.214Z,-1.97
2023-01-19T10:17:40.154Z,-1.90
2023-01-19T10:18:40.162Z,-1.82
2023-01-19T10:19:40.248Z,-1.90
2023-01-19T10:20:40.119Z,-1.82
2023-01-19T10:21:40.124Z,-1.76
2023-01-19T10:22:40.113Z,-1.79
2023-01-19T10:23:40.277Z,-1.72
2023-01-19T10:24:40.076Z,-1.77
2023-01-19T10:25:40.161Z,-1.59
2023-01-19T10:26:40.087Z,-1.58
2023-01-19T10:27:40.078Z,-1.59
2023-01-19T10:28:40.078Z,-1.58
2023-01-19T10:29:40.083Z,-1.56
2023-01-19T10:30:40.080Z,-1.54
2023-01-19T10:31:40.127Z,-1.61
2023-01-19T10:32:40.013Z,-1.55
2023-01-19T10:33:39.978Z,-1.51
2023-01-19T10:34:40.001Z,-1.48
2023-01-19T10:35:39.953Z,-1.48
2023-01-19T10:36:39.950Z,-1.41
2023-01-19T10:37:40.056Z,-1.46
2023-01-19T10:38:39.941Z,-1.41
2023-01-19T10:39:39.988Z,-1.41
2023-01-19T10:40:39.915Z,-1.35
2023-01-19T10:41:39.906Z,-1.31
2023-01-19T10:42:39.941Z,-1.23
2023-01-19T10:43:40.030Z,-1.33
2023-01-19T10:44:39.922Z,-1.28
2023-01-19T10:45:39.891Z,-1.34
2023-01-19T10:46:39.832Z,-1.34
2023-01-19T10:47:39.837Z,-1.20
2023-01-19T10:48:39.810Z,-1.25
2023-01-19T10:49:39.828Z,-1.17
2023-01-19T10:50:39.996Z,-1.10
2023-01-19T10:51:40.536Z,-1.07
2023-01-19T10:52:39.928Z,-1.12
2023-01-19T10:53:39.767Z,-1.02
2023-01-19T10:54:39.770Z,-1.01
2023-01-19T10:55:39.755Z,-1.05
2023-01-19T10:56:39.736Z,-1.01
2023-01-19T10:57:39.718Z,-0.94
2023-01-19T10:58:39.704Z,-0.98
2023-01-19T10:59:39.800Z,-0.95
2023-01-19T11:00:39.777Z,-0.98
2023-01-19T11:01:39.814Z,-0.92
2023-01-19T11:02:39.794Z,-0.80
2023-01-19T11:03:39.665Z,-0.91
2023-01-19T11:04:39.662Z,-0.82
2023-01-19T11:05:39.624Z,-0.89
2023-01-19T11:06:39.617Z,-0.85
2023-01-19T11:07:39.599Z,-0.82
2023-01-19T11:08:39.636Z,-0.82
2023-01-19T11:09:39.599Z,-0.76
2023-01-19T11:10:39.575Z,-0.73
2023-01-19T11:11:39.568Z,-0.78
2023-01-19T11:12:39.563Z,-0.69
2023-01-19T11:13:39.564Z,-0.67
2023-01-19T11:14:39.559Z,-0.67
2023-01-19T11:15:39.525Z,-0.65
2023-01-19T11:16:39.562Z,-0.65
2023-01-19T11:17:39.499Z,-0.69
2023-01-19T11:18:39.530Z,-0.58
2023-01-19T11:19:39.474Z,-0.47
2023-01-19T11:20:39.460Z,-0.51
2023-01-19T11:21:39.452Z,-0.40
2023-01-19T11:22:39.455Z,-0.46
2023-01-19T11:23:39.444Z,-0.42
2023-01-19T11:24:39.425Z,-0.47
2023-01-19T11:25:39.404Z,-0.40
2023-01-19T11:26:39.408Z,-0.36
2023-01-19T11:27:39.412Z,-0.26
2023-01-19T11:28:39.391Z,-0.31
2023-01-19T11:29:39.368Z,-0.26
2023-01-19T11:30:39.395Z,-0.23
2023-01-19T11:31:39.407Z,-0.31
2023-01-19T11:32:39.345Z,-0.26
2023-01-19T11:33:39.338Z,-0.21
2023-01-19T11:34:39.304Z,-0.15
2023-01-19T11:35:39.299Z,-0.15
2023-01-19T11:36:39.281Z,-0.07
2023-01-19T11:37:39.354Z,-0.05
2023-01-19T11:38:39.271Z,-0.08
2023-01-19T11:39:39.263Z,-0.14
2023-01-19T11:40:39.262Z,-0.14
2023-01-19T11:41:39.221Z,-0.10
2023-01-19T11:42:39.215Z,-0.03
2023-01-19T11:43:48.644Z,-0.01
2023-01-19T11:44:40.230Z,-0.04
2023-01-19T11:45:39.201Z,-0.03
2023-01-19T11:46:39.175Z,-0.04
2023-01-19T11:47:39.173Z,-0.01
2023-01-19T11:48:39.156Z,-0.01
2023-01-19T11:49:39.155Z,0.08
2023-01-19T11:50:39.129Z,0.08
2023-01-19T11:51:39.121Z,0.11
2023-01-19T11:52:39.109Z,0.11
2023-01-19T11:53:39.118Z,0.08
2023-01-19T11:54:39.091Z,0.10
2023-01-19T11:55:39.064Z,0.14
2023-01-19T11:56:39.583Z,0.10
2023-01-19T11:57:39.048Z,0.17
2023-01-19T11:58:39.072Z,0.23
2023-01-19T11:59:39.034Z,0.18
2023-01-19T12:00:39.022Z,0.28
2023-01-19T12:01:39.007Z,0.24
2023-01-19T12:02:38.998Z,0.26
2023-01-19T12:03:39.199Z,0.39
2023-01-19T12:04:38.994Z,0.41
2023-01-19T12:05:38.959Z,0.51
2023-01-19T12:06:38.950Z,0.44
2023-01-19T12:07:38.977Z,0.44
2023-01-19T12:08:38.969Z,0.53
2023-01-19T12:09:38.915Z,0.47
2023-01-19T12:10:38.962Z,0.53
2023-01-19T12:11:38.968Z,0.49
2023-01-19T12:12:38.892Z,0.46
2023-01-19T12:13:38.885Z,0.50
2023-01-19T12:14:38.877Z,0.58
2023-01-19T12:15:38.852Z,0.57
2023-01-19T12:16:38.960Z,0.62
2023-01-19T12:17:38.821Z,0.68
2023-01-19T12:18:38.817Z,0.57
2023-01-19T12:19:38.841Z,0.60
2023-01-19T12:20:38.791Z,0.61
2023-01-19T12:21:38.795Z,0.73
2023-01-19T12:22:38.778Z,0.69
2023-01-19T12:23:38.765Z,0.68
2023-01-19T12:24:38.863Z,0.70
2023-01-19T12:25:38.739Z,0.70
2023-01-19T12:26:38.747Z,0.73
2023-01-19T12:27:38.732Z,0.84
2023-01-19T12:28:38.726Z,0.79
2023-01-19T12:29:38.758Z,0.88
2023-01-19T12:30:38.854Z,0.90
2023-01-19T12:31:38.993Z,0.91
2023-01-19T12:32:38.669Z,0.93
2023-01-19T12:33:38.662Z,0.91
2023-01-19T12:34:38.642Z,0.97
2023-01-19T12:35:38.730Z,0.87
2023-01-19T12:36:38.620Z,0.91
2023-01-19T12:37:38.606Z,0.91
2023-01-19T12:38:38.619Z,1.00
2023-01-19T12:39:38.575Z,0.90
2023-01-19T12:40:38.591Z,0.97
2023-01-19T12:41:38.573Z,0.98
2023-01-19T12:42:38.566Z,1.06
2023-01-19T12:43:38.539Z,1.06
2023-01-19T12:44:38.527Z,1.02
2023-01-19T12:45:38.520Z,1.00
2023-01-19T12:46:38.532Z,0.93
2023-01-19T12:47:38.496Z,0.96
2023-01-19T12:48:38.505Z,0.93
2023-01-19T12:49:38.478Z,0.93
2023-01-19T12:50:38.460Z,0.93
2023-01-19T12:51:38.568Z,1.09
2023-01-19T12:52:38.438Z,1.08
2023-01-19T12:53:38.428Z,1.04
2023-01-19T12:54:38.427Z,0.97